Time;durP1;ratioP1;P1;durP2;ratioP2;P2;SDS_P1;SDS_P2;PMS_P1;PMS_P2;Temp;Humidity;BMP_temperature;BMP_pressure;BME280_temperature;BME280_humidity;BME280_pressure;Samples;Min_cycle;Max_cycle;Signal;HPM_P1;HPM_P2
2022/09/14 00:00:42;;;;;;;;;8.00;7.33;;;;;;;;5089418;27;51123;-57
2022/09/14 00:03:07;;;;;;;;;7.67;7.67;;;;;;;;5079969;27;51381;-57
2022/09/14 00:05:36;;;;;;;;;7.00;7.00;;;;;;;;5085692;27;51030;-56
2022/09/14 00:08:02;;;;;;;;;6.33;6.00;;;;;;;;5081705;27;51143;-58
2022/09/14 00:10:27;;;;;;;;;7.00;7.00;;;;;;;;5072402;27;51608;-57
2022/09/14 00:12:52;;;;;;;;;4.67;4.00;;;;;;;;5073453;27;51141;-58
2022/09/14 00:15:18;;;;;;;;;5.00;5.00;;;;;;;;5073139;28;50866;-56
2022/09/14 00:17:43;;;;;;;;;7.00;7.00;;;;;;;;5078746;27;51724;-59
2022/09/14 00:20:09;;;;;;;;;5.00;5.00;;;;;;;;5072685;27;50929;-57
2022/09/14 00:22:34;;;;;;;;;7.33;5.67;;;;;;;;5073646;27;51175;-56
2022/09/14 00:24:59;;;;;;;;;7.00;7.00;;;;;;;;5074016;27;51006;-57
2022/09/14 00:27:24;;;;;;;;;6.67;5.67;;;;;;;;5073851;27;50968;-57
2022/09/14 00:29:50;;;;;;;;;5.67;5.67;;;;;;;;5082054;27;51151;-56
2022/09/14 00:32:15;;;;;;;;;6.33;5.33;;;;;;;;5080786;27;51091;-57
2022/09/14 00:34:40;;;;;;;;;6.00;6.00;;;;;;;;5073431;28;51100;-57
2022/09/14 00:37:05;;;;;;;;;6.00;6.00;;;;;;;;5073220;27;51149;-57
2022/09/14 00:39:31;;;;;;;;;7.67;7.67;;;;;;;;5074957;27;51218;-55
2022/09/14 00:41:56;;;;;;;;;7.33;6.00;;;;;;;;5094127;27;50899;-56
2022/09/14 00:44:21;;;;;;;;;7.00;7.00;;;;;;;;5093932;27;50967;-56
2022/09/14 00:46:47;;;;;;;;;7.00;6.67;;;;;;;;5093762;27;52586;-56
2022/09/14 00:49:15;;;;;;;;;7.00;6.67;;;;;;;;5075277;27;51005;-56
2022/09/14 00:51:45;;;;;;;;;6.67;6.33;;;;;;;;5073459;27;52186;-56
2022/09/14 00:54:10;;;;;;;;;6.67;6.67;;;;;;;;5077480;27;51276;-56
2022/09/14 00:56:36;;;;;;;;;6.00;6.00;;;;;;;;5072710;27;51991;-57
2022/09/14 00:59:09;;;;;;;;;7.00;7.00;;;;;;;;5073309;28;51042;-57
2022/09/14 01:01:34;;;;;;;;;4.00;4.00;;;;;;;;5085125;27;51306;-55
2022/09/14 01:03:59;;;;;;;;;8.33;8.00;;;;;;;;5073151;27;51094;-55
2022/09/14 01:06:51;;;;;;;;;6.00;6.00;;;;;;;;5071503;28;51069;-57
2022/09/14 01:09:28;;;;;;;;;6.00;6.00;;;;;;;;5072246;27;51010;-57
2022/09/14 01:11:59;;;;;;;;;8.00;7.00;;;;;;;;5073332;28;51041;-57
2022/09/14 01:14:39;;;;;;;;;7.00;6.67;;;;;;;;5072780;27;51439;-56
2022/09/14 01:17:27;;;;;;;;;8.00;7.00;;;;;;;;5079395;27;52341;-57
2022/09/14 01:20:04;;;;;;;;;7.33;6.67;;;;;;;;5071952;27;51145;-57
2022/09/14 01:22:51;;;;;;;;;5.00;5.00;;;;;;;;5072978;27;51083;-56
2022/09/14 01:25:17;;;;;;;;;6.00;6.00;;;;;;;;5073127;28;50845;-57
2022/09/14 01:27:43;;;;;;;;;6.00;6.00;;;;;;;;5074466;27;52069;-57
2022/09/14 01:30:14;;;;;;;;;6.67;6.33;;;;;;;;5080127;27;51143;-57
2022/09/14 01:32:39;;;;;;;;;6.00;6.00;;;;;;;;5072829;27;51016;-56
2022/09/14 01:35:04;;;;;;;;;7.33;6.00;;;;;;;;5072757;27;51018;-57
2022/09/14 01:37:34;;;;;;;;;8.00;8.00;;;;;;;;5072620;28;52313;-57
2022/09/14 01:40:08;;;;;;;;;6.00;6.00;;;;;;;;5074588;27;51086;-57
2022/09/14 01:42:35;;;;;;;;;5.00;5.00;;;;;;;;5071723;27;51084;-57
2022/09/14 01:45:06;;;;;;;;;5.00;5.00;;;;;;;;5094001;27;51251;-57
2022/09/14 01:47:43;;;;;;;;;5.00;5.00;;;;;;;;5084382;27;51364;-58
2022/09/14 01:50:37;;;;;;;;;6.33;5.33;;;;;;;;5074225;27;51150;-57
2022/09/14 01:53:12;;;;;;;;;5.67;5.67;;;;;;;;5080476;27;51022;-58
2022/09/14 01:55:43;;;;;;;;;7.33;6.33;;;;;;;;5082619;27;50997;-56
2022/09/14 01:58:30;;;;;;;;;5.00;5.00;;;;;;;;5073638;27;52121;-57
2022/09/14 02:00:56;;;;;;;;;5.00;5.00;;;;;;;;5088961;27;50922;-57
2022/09/14 02:03:24;;;;;;;;;6.67;6.00;;;;;;;;5076293;27;50978;-58
2022/09/14 02:05:55;;;;;;;;;6.33;6.00;;;;;;;;5075907;27;50976;-56
2022/09/14 02:08:21;;;;;;;;;5.67;5.67;;;;;;;;5078293;27;52268;-57
2022/09/14 02:10:46;;;;;;;;;5.00;5.00;;;;;;;;5096188;27;51023;-55
2022/09/14 02:13:11;;;;;;;;;6.67;6.33;;;;;;;;5096239;27;50890;-56
2022/09/14 02:15:37;;;;;;;;;7.67;7.67;;;;;;;;5096476;27;50838;-56
2022/09/14 02:18:03;;;;;;;;;8.00;6.00;;;;;;;;5078704;27;52478;-56
2022/09/14 02:20:34;;;;;;;;;4.00;4.00;;;;;;;;5083378;27;54553;-56
2022/09/14 02:22:59;;;;;;;;;9.00;7.00;;;;;;;;5076003;28;51030;-57
2022/09/14 02:25:24;;;;;;;;;8.00;7.67;;;;;;;;5074618;28;51342;-57
2022/09/14 02:27:51;;;;;;;;;6.33;6.33;;;;;;;;5079552;27;51073;-56
2022/09/14 02:30:17;;;;;;;;;8.00;7.33;;;;;;;;5083414;27;51240;-57
2022/09/14 02:32:44;;;;;;;;;8.33;7.00;;;;;;;;5075510;27;51068;-57
2022/09/14 02:35:21;;;;;;;;;6.67;6.33;;;;;;;;5075031;27;51283;-57
2022/09/14 02:38:05;;;;;;;;;11.00;9.00;;;;;;;;5075199;27;52158;-56
2022/09/14 02:40:30;;;;;;;;;8.00;8.00;;;;;;;;5075366;27;51070;-56
2022/09/14 02:43:02;;;;;;;;;7.67;7.00;;;;;;;;5075421;27;51116;-56
2022/09/14 02:45:34;;;;;;;;;8.00;7.33;;;;;;;;5075724;27;51283;-56
2022/09/14 02:47:59;;;;;;;;;6.00;6.00;;;;;;;;5074829;27;51961;-56
2022/09/14 02:50:30;;;;;;;;;6.00;6.00;;;;;;;;5074155;27;51049;-56
2022/09/14 02:52:58;;;;;;;;;7.33;7.00;;;;;;;;5084315;27;51073;-55
2022/09/14 02:55:25;;;;;;;;;7.00;6.67;;;;;;;;5093466;27;50991;-56
2022/09/14 02:57:59;;;;;;;;;6.67;6.33;;;;;;;;5095410;27;50847;-57
2022/09/14 03:00:26;;;;;;;;;7.33;7.00;;;;;;;;5078497;27;51029;-54
2022/09/14 03:02:51;;;;;;;;;6.00;6.00;;;;;;;;5083292;27;51052;-55
2022/09/14 03:05:16;;;;;;;;;5.00;5.00;;;;;;;;5076218;27;50894;-55
2022/09/14 03:07:41;;;;;;;;;5.33;5.33;;;;;;;;5076825;28;52048;-55
2022/09/14 03:10:07;;;;;;;;;8.00;7.33;;;;;;;;5089686;27;50796;-56
2022/09/14 03:12:32;;;;;;;;;8.00;8.00;;;;;;;;5095416;27;51222;-56
2022/09/14 03:14:57;;;;;;;;;8.00;7.67;;;;;;;;5093594;27;51402;-56
2022/09/14 03:17:22;;;;;;;;;6.33;5.33;;;;;;;;5076101;27;51782;-56
2022/09/14 03:19:48;;;;;;;;;6.33;6.33;;;;;;;;5077201;27;51654;-57
2022/09/14 03:22:13;;;;;;;;;5.00;5.00;;;;;;;;5074928;27;50930;-56
2022/09/14 03:24:39;;;;;;;;;5.67;5.67;;;;;;;;5075064;27;50892;-56
2022/09/14 03:27:04;;;;;;;;;6.00;6.00;;;;;;;;5074398;27;51981;-56
2022/09/14 03:29:29;;;;;;;;;6.00;6.00;;;;;;;;5087234;27;51276;-56
2022/09/14 03:31:54;;;;;;;;;6.67;6.67;;;;;;;;5077418;27;50961;-55
2022/09/14 03:34:20;;;;;;;;;6.00;6.00;;;;;;;;5074594;27;51132;-56
2022/09/14 03:36:45;;;;;;;;;7.00;7.00;;;;;;;;5074256;28;52191;-56
2022/09/14 03:39:11;;;;;;;;;7.67;6.67;;;;;;;;5074227;27;51269;-55
2022/09/14 03:41:36;;;;;;;;;5.00;5.00;;;;;;;;5074433;27;51059;-56
2022/09/14 03:44:02;;;;;;;;;5.00;5.00;;;;;;;;5074577;27;51148;-55
2022/09/14 03:46:27;;;;;;;;;6.33;6.00;;;;;;;;5079012;27;53152;-54
2022/09/14 03:48:53;;;;;;;;;5.00;5.00;;;;;;;;5076274;27;51095;-55
2022/09/14 03:51:18;;;;;;;;;6.33;6.33;;;;;;;;5076621;27;51092;-55
2022/09/14 03:53:44;;;;;;;;;8.00;8.00;;;;;;;;5085528;27;51056;-55
2022/09/14 03:56:14;;;;;;;;;5.67;4.33;;;;;;;;5073854;27;51780;-55
2022/09/14 03:58:39;;;;;;;;;8.00;7.00;;;;;;;;5076083;27;50966;-54
2022/09/14 04:01:05;;;;;;;;;6.00;6.00;;;;;;;;5093557;27;50980;-56
2022/09/14 04:03:31;;;;;;;;;7.00;6.33;;;;;;;;5094586;27;51009;-55
2022/09/14 04:05:56;;;;;;;;;7.00;6.00;;;;;;;;5082462;27;52443;-55
2022/09/14 04:08:22;;;;;;;;;6.33;6.33;;;;;;;;5073255;27;51021;-55
2022/09/14 04:10:48;;;;;;;;;6.67;6.00;;;;;;;;5094200;27;51032;-54
2022/09/14 04:13:13;;;;;;;;;6.00;6.00;;;;;;;;5094434;27;51091;-54
2022/09/14 04:15:38;;;;;;;;;10.33;9.33;;;;;;;;5076762;27;51285;-54
2022/09/14 04:18:03;;;;;;;;;8.00;7.00;;;;;;;;5079869;27;50966;-55
2022/09/14 04:20:29;;;;;;;;;6.33;6.00;;;;;;;;5073273;27;50932;-55
2022/09/14 04:22:54;;;;;;;;;6.67;6.67;;;;;;;;5073995;27;50942;-54
2022/09/14 04:25:19;;;;;;;;;7.33;6.33;;;;;;;;5072192;28;52952;-54
2022/09/14 04:27:44;;;;;;;;;6.00;6.00;;;;;;;;5076256;27;50900;-53
2022/09/14 04:30:10;;;;;;;;;5.00;4.67;;;;;;;;5093291;27;51383;-56
2022/09/14 04:32:35;;;;;;;;;8.00;7.00;;;;;;;;5081256;27;51152;-53
2022/09/14 04:35:00;;;;;;;;;6.33;6.00;;;;;;;;5080925;27;51318;-56
2022/09/14 04:37:25;;;;;;;;;5.00;5.00;;;;;;;;5073196;27;51134;-54
2022/09/14 04:39:51;;;;;;;;;6.00;6.00;;;;;;;;5086204;27;51029;-54
2022/09/14 04:42:16;;;;;;;;;7.00;7.00;;;;;;;;5080544;27;50846;-54
2022/09/14 04:44:41;;;;;;;;;7.00;7.00;;;;;;;;5073170;27;51207;-54
2022/09/14 04:47:06;;;;;;;;;7.67;6.33;;;;;;;;5092493;27;51135;-55
2022/09/14 04:49:31;;;;;;;;;7.00;6.00;;;;;;;;5075095;27;51055;-55
2022/09/14 04:51:57;;;;;;;;;6.00;6.00;;;;;;;;5079595;27;51259;-55
2022/09/14 04:54:22;;;;;;;;;6.67;6.33;;;;;;;;5083583;27;52072;-54
2022/09/14 04:56:47;;;;;;;;;6.00;5.00;;;;;;;;5073038;27;50968;-55
2022/09/14 04:59:14;;;;;;;;;5.00;5.00;;;;;;;;5073413;27;51306;-55
2022/09/14 05:01:41;;;;;;;;;5.67;5.33;;;;;;;;5092854;27;50889;-56
2022/09/14 05:04:07;;;;;;;;;7.00;6.00;;;;;;;;5090165;27;52291;-56
2022/09/14 05:06:33;;;;;;;;;7.33;7.00;;;;;;;;5093876;27;51099;-56
2022/09/14 05:08:59;;;;;;;;;5.33;5.00;;;;;;;;5088508;27;51133;-54
2022/09/14 05:11:29;;;;;;;;;6.67;5.67;;;;;;;;5076122;27;51361;-56
2022/09/14 05:13:55;;;;;;;;;7.00;6.00;;;;;;;;5077124;27;51349;-54
2022/09/14 05:16:22;;;;;;;;;7.00;6.00;;;;;;;;5075464;27;51104;-53
2022/09/14 05:18:48;;;;;;;;;5.33;5.00;;;;;;;;5074063;27;51029;-55
2022/09/14 05:21:15;;;;;;;;;7.67;6.00;;;;;;;;5090724;27;51401;-54
2022/09/14 05:23:41;;;;;;;;;5.33;5.33;;;;;;;;5083542;27;51198;-55
2022/09/14 05:26:06;;;;;;;;;6.00;5.33;;;;;;;;5076382;27;51533;-55
2022/09/14 05:28:32;;;;;;;;;7.00;5.67;;;;;;;;5076412;27;53218;-56
2022/09/14 05:30:57;;;;;;;;;6.00;6.00;;;;;;;;5078041;27;51364;-54
2022/09/14 05:33:22;;;;;;;;;4.33;4.33;;;;;;;;5073389;27;51128;-53
2022/09/14 05:35:49;;;;;;;;;5.00;5.00;;;;;;;;5084182;27;50932;-55
2022/09/14 05:38:14;;;;;;;;;6.00;6.00;;;;;;;;5070046;27;51128;-56
2022/09/14 05:40:40;;;;;;;;;8.33;8.33;;;;;;;;5076455;27;50908;-54
2022/09/14 05:43:05;;;;;;;;;8.33;8.00;;;;;;;;5070683;27;51780;-56
2022/09/14 05:45:31;;;;;;;;;4.67;4.67;;;;;;;;5083659;27;51164;-56
2022/09/14 05:47:59;;;;;;;;;7.00;7.00;;;;;;;;5090980;27;51187;-56
2022/09/14 05:50:24;;;;;;;;;7.00;7.00;;;;;;;;5079354;27;51112;-56
2022/09/14 05:52:50;;;;;;;;;8.00;7.00;;;;;;;;5080857;27;51833;-55
2022/09/14 05:55:15;;;;;;;;;7.00;7.00;;;;;;;;5075663;27;51063;-55
2022/09/14 05:57:40;;;;;;;;;8.33;7.67;;;;;;;;5075438;27;51156;-56
2022/09/14 06:00:06;;;;;;;;;8.00;7.00;;;;;;;;5080295;27;51370;-56
2022/09/14 06:02:32;;;;;;;;;9.00;7.33;;;;;;;;5071943;27;52194;-55
2022/09/14 06:04:57;;;;;;;;;6.33;6.00;;;;;;;;5078221;27;50957;-54
2022/09/14 06:07:22;;;;;;;;;7.33;7.00;;;;;;;;5072094;27;51126;-55
2022/09/14 06:09:48;;;;;;;;;8.67;8.00;;;;;;;;5072445;27;51366;-56
2022/09/14 06:12:13;;;;;;;;;7.00;7.00;;;;;;;;5080499;27;52576;-56
2022/09/14 06:14:39;;;;;;;;;6.67;6.67;;;;;;;;5072807;27;51087;-59
2022/09/14 06:17:05;;;;;;;;;8.00;8.00;;;;;;;;5072685;27;50939;-58
2022/09/14 06:19:32;;;;;;;;;8.00;6.00;;;;;;;;5071326;27;51254;-57
2022/09/14 06:21:58;;;;;;;;;8.00;8.00;;;;;;;;5071038;27;51338;-57
2022/09/14 06:24:23;;;;;;;;;8.00;7.00;;;;;;;;5071800;27;50940;-59
2022/09/14 06:26:49;;;;;;;;;10.00;10.00;;;;;;;;5070974;27;51214;-57
2022/09/14 06:29:14;;;;;;;;;9.33;8.00;;;;;;;;5084464;27;51216;-59
2022/09/14 06:31:40;;;;;;;;;9.00;9.00;;;;;;;;5086029;27;51698;-59
2022/09/14 06:34:05;;;;;;;;;10.00;9.67;;;;;;;;5094538;27;51008;-58
2022/09/14 06:36:31;;;;;;;;;11.33;11.33;;;;;;;;5095456;27;51146;-58
2022/09/14 06:38:58;;;;;;;;;11.33;11.33;;;;;;;;5095317;27;51106;-59
2022/09/14 06:41:27;;;;;;;;;7.67;7.67;;;;;;;;5092238;27;51069;-56
2022/09/14 06:43:55;;;;;;;;;7.67;7.33;;;;;;;;5077034;27;51160;-57
2022/09/14 06:46:22;;;;;;;;;10.67;10.00;;;;;;;;5074285;27;51067;-56
2022/09/14 06:48:50;;;;;;;;;9.33;9.33;;;;;;;;5085856;27;51340;-58
2022/09/14 06:51:20;;;;;;;;;11.00;11.00;;;;;;;;5093310;27;51892;-59
2022/09/14 06:53:46;;;;;;;;;8.00;8.00;;;;;;;;5092095;27;51022;-58
2022/09/14 06:56:12;;;;;;;;;18.33;18.33;;;;;;;;5074874;28;51012;-58
2022/09/14 06:58:37;;;;;;;;;13.00;12.67;;;;;;;;5074575;27;51139;-57
2022/09/14 07:01:03;;;;;;;;;16.33;15.33;;;;;;;;5074633;27;52670;-58
2022/09/14 07:03:29;;;;;;;;;12.33;12.00;;;;;;;;5083600;27;51076;-57
2022/09/14 07:06:00;;;;;;;;;11.33;9.67;;;;;;;;5084689;27;51288;-56
2022/09/14 07:08:27;;;;;;;;;10.00;10.00;;;;;;;;5074665;27;51259;-58
2022/09/14 07:10:56;;;;;;;;;11.00;10.33;;;;;;;;5074034;27;50965;-58
2022/09/14 07:13:22;;;;;;;;;10.00;9.00;;;;;;;;5073747;27;51080;-58
2022/09/14 07:15:48;;;;;;;;;13.67;11.00;;;;;;;;5074480;27;50941;-57
2022/09/14 07:18:14;;;;;;;;;7.33;7.33;;;;;;;;5074118;27;50924;-57
2022/09/14 07:20:39;;;;;;;;;7.67;7.33;;;;;;;;5074089;27;51095;-57
2022/09/14 07:23:04;;;;;;;;;5.00;5.00;;;;;;;;5079737;27;51093;-57
2022/09/14 07:25:29;;;;;;;;;8.33;7.67;;;;;;;;5094922;27;51062;-58
2022/09/14 07:27:55;;;;;;;;;6.33;6.33;;;;;;;;5096490;27;51122;-56
2022/09/14 07:30:20;;;;;;;;;7.33;7.33;;;;;;;;5102296;27;50988;-59
2022/09/14 07:32:45;;;;;;;;;7.67;7.67;;;;;;;;5081317;27;50991;-58
2022/09/14 07:35:11;;;;;;;;;9.00;8.00;;;;;;;;5075589;27;51211;-57
2022/09/14 07:37:36;;;;;;;;;7.67;7.00;;;;;;;;5079553;27;51108;-57
2022/09/14 07:40:01;;;;;;;;;8.00;7.67;;;;;;;;5082809;27;51055;-57
2022/09/14 07:42:27;;;;;;;;;7.67;7.67;;;;;;;;5078484;27;51277;-58
2022/09/14 07:44:52;;;;;;;;;7.67;7.67;;;;;;;;5076123;27;51086;-58
2022/09/14 07:47:18;;;;;;;;;7.00;6.33;;;;;;;;5092096;27;51450;-58
2022/09/14 07:49:43;;;;;;;;;7.00;7.00;;;;;;;;5082882;27;51523;-58
2022/09/14 07:52:10;;;;;;;;;7.33;7.33;;;;;;;;5076691;27;51055;-58
2022/09/14 07:54:35;;;;;;;;;8.00;7.00;;;;;;;;5085320;27;51403;-59
2022/09/14 07:57:00;;;;;;;;;7.67;7.33;;;;;;;;5081529;27;51096;-58
2022/09/14 07:59:26;;;;;;;;;7.33;7.33;;;;;;;;5081919;27;53585;-58
2022/09/14 08:01:52;;;;;;;;;6.67;6.00;;;;;;;;5084278;27;51107;-56
2022/09/14 08:04:17;;;;;;;;;8.33;7.33;;;;;;;;5079995;27;51217;-57
2022/09/14 08:06:42;;;;;;;;;10.00;10.00;;;;;;;;5086857;27;51328;-57
2022/09/14 08:09:09;;;;;;;;;6.33;6.33;;;;;;;;5078077;27;52134;-57
2022/09/14 08:11:34;;;;;;;;;6.00;5.33;;;;;;;;5088246;27;51188;-56
2022/09/14 08:14:04;;;;;;;;;9.33;7.33;;;;;;;;5085640;27;51158;-57
2022/09/14 08:16:30;;;;;;;;;12.00;11.00;;;;;;;;5082075;27;51360;-58
2022/09/14 08:18:57;;;;;;;;;6.67;5.67;;;;;;;;5072523;27;52281;-57
2022/09/14 08:21:22;;;;;;;;;7.67;7.67;;;;;;;;5081201;27;51099;-58
2022/09/14 08:23:48;;;;;;;;;7.67;7.33;;;;;;;;5078770;27;51174;-58
2022/09/14 08:26:14;;;;;;;;;11.00;9.00;;;;;;;;5087729;27;51233;-58
2022/09/14 08:28:42;;;;;;;;;7.33;6.33;;;;;;;;5087793;27;51200;-59
2022/09/14 08:31:09;;;;;;;;;5.33;5.33;;;;;;;;5087505;27;51606;-58
2022/09/14 08:33:36;;;;;;;;;6.33;6.33;;;;;;;;5078485;27;51024;-58
2022/09/14 08:36:01;;;;;;;;;7.00;7.00;;;;;;;;5071155;27;51090;-59
2022/09/14 08:38:27;;;;;;;;;11.00;9.67;;;;;;;;5071996;27;51165;-58
2022/09/14 08:40:53;;;;;;;;;6.33;5.67;;;;;;;;5081106;27;51173;-57
2022/09/14 08:43:20;;;;;;;;;5.67;5.67;;;;;;;;5070853;27;51085;-57
2022/09/14 08:45:47;;;;;;;;;6.00;6.00;;;;;;;;5091293;27;51190;-57
2022/09/14 08:48:24;;;;;;;;;7.00;6.00;;;;;;;;5090913;27;51240;-58
2022/09/14 08:50:53;;;;;;;;;7.33;7.33;;;;;;;;5081397;27;50953;-57
2022/09/14 08:53:21;;;;;;;;;8.00;8.00;;;;;;;;5080638;27;51031;-57
2022/09/14 08:55:46;;;;;;;;;7.67;7.67;;;;;;;;5072692;27;51156;-59
2022/09/14 08:58:27;;;;;;;;;6.67;6.67;;;;;;;;5071549;27;51283;-59
2022/09/14 09:01:07;;;;;;;;;5.00;5.00;;;;;;;;5077658;27;51058;-58
2022/09/14 09:03:32;;;;;;;;;7.33;6.33;;;;;;;;5083513;27;51179;-58
2022/09/14 09:06:07;;;;;;;;;6.67;5.00;;;;;;;;5076731;27;51142;-58
2022/09/14 09:08:40;;;;;;;;;5.67;5.67;;;;;;;;5079280;27;52292;-59
2022/09/14 09:11:11;;;;;;;;;8.00;8.00;;;;;;;;5091566;27;51127;-58
2022/09/14 09:13:39;;;;;;;;;7.67;6.33;;;;;;;;5091329;27;51172;-58
2022/09/14 09:16:06;;;;;;;;;5.67;5.67;;;;;;;;5078463;27;51368;-57
2022/09/14 09:18:55;;;;;;;;;7.67;6.67;;;;;;;;5076574;27;51115;-58
2022/09/14 09:21:32;;;;;;;;;6.67;6.33;;;;;;;;5084791;27;50923;-58
2022/09/14 09:24:24;;;;;;;;;5.00;5.00;;;;;;;;5092999;27;51108;-57
2022/09/14 09:26:49;;;;;;;;;6.00;5.67;;;;;;;;5077219;27;50968;-58
2022/09/14 09:29:15;;;;;;;;;4.00;4.00;;;;;;;;5082935;27;52249;-56
2022/09/14 09:31:44;;;;;;;;;6.00;6.00;;;;;;;;5075252;27;50936;-57
2022/09/14 09:34:12;;;;;;;;;6.33;6.33;;;;;;;;5071932;27;51286;-58
2022/09/14 09:36:39;;;;;;;;;6.67;6.67;;;;;;;;5082111;27;51174;-58
2022/09/14 09:39:05;;;;;;;;;7.00;6.33;;;;;;;;5082197;27;51569;-58
2022/09/14 09:41:34;;;;;;;;;6.33;6.33;;;;;;;;5076806;27;51178;-58
2022/09/14 09:43:59;;;;;;;;;5.00;5.00;;;;;;;;5082231;27;51008;-58
2022/09/14 09:46:26;;;;;;;;;5.33;5.33;;;;;;;;5071293;27;51426;-58
2022/09/14 09:48:52;;;;;;;;;5.33;5.33;;;;;;;;5081923;27;52101;-57
2022/09/14 09:51:25;;;;;;;;;5.00;5.00;;;;;;;;5091091;27;50916;-57
2022/09/14 09:53:51;;;;;;;;;9.00;9.00;;;;;;;;5082838;27;51003;-58
2022/09/14 09:56:18;;;;;;;;;6.33;6.33;;;;;;;;5071381;27;51254;-57
2022/09/14 09:58:45;;;;;;;;;9.67;9.67;;;;;;;;5072765;27;50961;-57
2022/09/14 10:01:21;;;;;;;;;7.00;7.00;;;;;;;;5079613;27;51153;-57
2022/09/14 10:04:05;;;;;;;;;6.00;6.00;;;;;;;;5072140;27;50930;-57
2022/09/14 10:06:31;;;;;;;;;7.00;7.00;;;;;;;;5077139;27;51465;-57
2022/09/14 10:08:57;;;;;;;;;5.00;5.00;;;;;;;;5095097;27;51761;-58
2022/09/14 10:11:25;;;;;;;;;6.00;6.00;;;;;;;;5093539;27;51039;-57
2022/09/14 10:13:51;;;;;;;;;4.67;4.67;;;;;;;;5074823;27;51032;-57
2022/09/14 10:16:18;;;;;;;;;5.00;5.00;;;;;;;;5079689;27;50876;-57
2022/09/14 10:18:45;;;;;;;;;4.33;4.00;;;;;;;;5092482;27;51889;-56
2022/09/14 10:21:11;;;;;;;;;7.00;7.00;;;;;;;;5087546;27;51188;-57
2022/09/14 10:23:37;;;;;;;;;5.67;5.67;;;;;;;;5080968;27;51251;-58
2022/09/14 10:26:09;;;;;;;;;6.00;6.00;;;;;;;;5082060;27;50987;-58
2022/09/14 10:28:34;;;;;;;;;5.00;5.00;;;;;;;;5089003;27;52071;-57
2022/09/14 10:31:16;;;;;;;;;5.67;5.67;;;;;;;;5074913;27;51083;-57
2022/09/14 10:33:42;;;;;;;;;4.67;4.00;;;;;;;;5074227;27;50947;-58
2022/09/14 10:36:26;;;;;;;;;3.67;3.00;;;;;;;;5075029;27;51083;-57
2022/09/14 10:38:57;;;;;;;;;4.33;4.33;;;;;;;;5077790;27;55658;-57
2022/09/14 10:41:32;;;;;;;;;4.00;3.67;;;;;;;;5085237;27;51169;-57
2022/09/14 10:44:06;;;;;;;;;6.00;6.00;;;;;;;;5081319;27;51171;-58
2022/09/14 10:46:38;;;;;;;;;5.33;5.33;;;;;;;;5080596;27;51199;-58
2022/09/14 10:49:12;;;;;;;;;3.67;3.67;;;;;;;;5080039;27;51983;-57
2022/09/14 10:51:41;;;;;;;;;4.67;3.00;;;;;;;;5080713;27;51181;-58
2022/09/14 10:54:06;;;;;;;;;3.67;3.67;;;;;;;;5089970;27;51239;-56
2022/09/14 10:56:43;;;;;;;;;2.33;2.33;;;;;;;;5088042;27;50973;-57
2022/09/14 10:59:17;;;;;;;;;3.67;3.67;;;;;;;;5088899;27;52011;-58
2022/09/14 11:01:55;;;;;;;;;3.33;3.33;;;;;;;;5092948;27;50963;-58
2022/09/14 11:04:29;;;;;;;;;3.00;3.00;;;;;;;;5073375;27;51036;-58
2022/09/14 11:06:57;;;;;;;;;3.67;3.67;;;;;;;;5077313;27;50958;-57
2022/09/14 11:09:28;;;;;;;;;4.33;4.33;;;;;;;;5093666;27;51812;-57
2022/09/14 11:11:58;;;;;;;;;3.33;3.33;;;;;;;;5087790;27;51002;-57
2022/09/14 11:14:41;;;;;;;;;2.00;2.00;;;;;;;;5094420;27;51007;-57
2022/09/14 11:17:06;;;;;;;;;3.33;3.00;;;;;;;;5089188;27;51371;-58
2022/09/14 11:19:38;;;;;;;;;3.67;3.67;;;;;;;;5073293;27;50983;-58
2022/09/14 11:22:22;;;;;;;;;4.00;3.00;;;;;;;;5073402;27;51177;-57
2022/09/14 11:25:00;;;;;;;;;4.00;4.00;;;;;;;;5073765;27;51344;-57
2022/09/14 11:27:30;;;;;;;;;2.00;2.00;;;;;;;;5073802;28;51171;-57
2022/09/14 11:30:02;;;;;;;;;4.00;4.00;;;;;;;;5083872;27;51369;-57
2022/09/14 11:32:30;;;;;;;;;2.00;2.00;;;;;;;;5078022;27;50984;-57
2022/09/14 11:34:56;;;;;;;;;10.00;10.00;;;;;;;;5083698;27;50884;-57
2022/09/14 11:37:45;;;;;;;;;1.67;1.67;;;;;;;;5073265;27;50938;-57
2022/09/14 11:40:15;;;;;;;;;4.33;4.33;;;;;;;;5073379;27;51786;-57
2022/09/14 11:42:43;;;;;;;;;0.00;0.00;;;;;;;;5079337;27;50893;-57
2022/09/14 11:45:37;;;;;;;;;5.00;5.00;;;;;;;;5093371;27;51043;-57
2022/09/14 11:48:07;;;;;;;;;2.00;2.00;;;;;;;;5072302;27;51255;-57
2022/09/14 11:50:34;;;;;;;;;2.67;2.67;;;;;;;;5073113;27;50871;-57
2022/09/14 11:53:08;;;;;;;;;2.00;2.00;;;;;;;;5080598;27;51002;-57
2022/09/14 11:55:34;;;;;;;;;3.00;3.00;;;;;;;;5093545;27;50891;-57
2022/09/14 11:58:05;;;;;;;;;4.67;4.67;;;;;;;;5094219;27;50968;-58
2022/09/14 12:00:42;;;;;;;;;2.67;2.67;;;;;;;;5093038;27;52743;-57
2022/09/14 12:03:13;;;;;;;;;5.00;5.00;;;;;;;;5081316;27;51113;-57
2022/09/14 12:05:39;;;;;;;;;4.00;2.00;;;;;;;;5085619;27;51285;-57
2022/09/14 12:08:22;;;;;;;;;4.67;4.67;;;;;;;;5073016;27;51125;-57
2022/09/14 12:10:58;;;;;;;;;3.00;3.00;;;;;;;;5084214;27;52330;-57
2022/09/14 12:13:23;;;;;;;;;5.00;4.00;;;;;;;;5090160;27;50958;-57
2022/09/14 12:15:59;;;;;;;;;7.33;4.67;;;;;;;;5092066;27;51042;-57
2022/09/14 12:18:26;;;;;;;;;4.00;3.00;;;;;;;;5073215;27;50950;-57
2022/09/14 12:21:26;;;;;;;;;4.00;4.00;;;;;;;;5073068;27;51973;-57
2022/09/14 12:23:56;;;;;;;;;5.00;4.00;;;;;;;;5082885;27;51204;-55
2022/09/14 12:26:30;;;;;;;;;6.67;5.67;;;;;;;;5072589;27;51116;-58
2022/09/14 12:28:58;;;;;;;;;3.00;3.00;;;;;;;;5087446;27;51106;-60
2022/09/14 12:31:33;;;;;;;;;3.67;3.67;;;;;;;;5072612;27;51170;-58
2022/09/14 12:34:04;;;;;;;;;2.00;2.00;;;;;;;;5086052;27;51104;-57
2022/09/14 12:36:29;;;;;;;;;2.33;2.33;;;;;;;;5093660;27;51043;-58
2022/09/14 12:38:58;;;;;;;;;4.67;4.00;;;;;;;;5093409;27;51059;-57
2022/09/14 12:41:23;;;;;;;;;2.00;2.00;;;;;;;;5092768;27;52282;-57
2022/09/14 12:43:49;;;;;;;;;3.67;3.67;;;;;;;;5091557;27;51033;-57
2022/09/14 12:46:20;;;;;;;;;3.00;3.00;;;;;;;;5092758;27;50869;-57
2022/09/14 12:48:47;;;;;;;;;3.00;2.00;;;;;;;;5091877;27;51392;-58
2022/09/14 12:51:18;;;;;;;;;1.67;1.67;;;;;;;;5090328;27;51798;-58
2022/09/14 12:53:45;;;;;;;;;1.00;1.00;;;;;;;;5085506;27;51172;-57
2022/09/14 12:56:18;;;;;;;;;5.00;5.00;;;;;;;;5092027;27;51027;-57
2022/09/14 12:58:46;;;;;;;;;3.00;3.00;;;;;;;;5092527;27;51299;-57
2022/09/14 13:01:11;;;;;;;;;2.00;2.00;;;;;;;;5085309;27;51833;-57
2022/09/14 13:03:43;;;;;;;;;3.00;3.00;;;;;;;;5070759;27;50947;-57
2022/09/14 13:06:10;;;;;;;;;2.33;2.33;;;;;;;;5071880;27;51228;-57
2022/09/14 13:08:36;;;;;;;;;3.00;3.00;;;;;;;;5072072;27;50912;-59
2022/09/14 13:11:01;;;;;;;;;1.67;1.67;;;;;;;;5069756;27;51015;-57
2022/09/14 13:13:30;;;;;;;;;3.33;3.33;;;;;;;;5071983;27;51075;-58
2022/09/14 13:15:57;;;;;;;;;2.00;2.00;;;;;;;;5077276;27;51071;-57
2022/09/14 13:18:22;;;;;;;;;1.33;1.33;;;;;;;;5072158;27;51068;-58
2022/09/14 13:20:49;;;;;;;;;2.00;1.00;;;;;;;;5071688;27;51028;-59
2022/09/14 13:23:21;;;;;;;;;1.67;1.67;;;;;;;;5071559;27;51252;-58
2022/09/14 13:25:46;;;;;;;;;3.00;2.00;;;;;;;;5071786;27;51045;-57
2022/09/14 13:28:16;;;;;;;;;2.00;2.00;;;;;;;;5081905;27;50932;-59
2022/09/14 13:30:42;;;;;;;;;1.00;1.00;;;;;;;;5084669;27;52762;-57
2022/09/14 13:33:15;;;;;;;;;0.67;0.67;;;;;;;;5070842;27;51172;-58
2022/09/14 13:35:52;;;;;;;;;2.00;2.00;;;;;;;;5071923;28;51079;-57
2022/09/14 13:38:21;;;;;;;;;1.00;1.00;;;;;;;;5071768;27;51245;-57
2022/09/14 13:40:48;;;;;;;;;1.33;1.33;;;;;;;;5074830;27;51494;-58
2022/09/14 13:43:18;;;;;;;;;1.33;1.33;;;;;;;;5077617;27;51127;-58
2022/09/14 13:45:43;;;;;;;;;1.00;1.00;;;;;;;;5095755;27;51080;-58
2022/09/14 13:48:11;;;;;;;;;1.33;1.33;;;;;;;;5075757;27;51267;-57
2022/09/14 13:50:37;;;;;;;;;2.00;2.00;;;;;;;;5075209;27;51456;-58
2022/09/14 13:53:02;;;;;;;;;2.00;2.00;;;;;;;;5080505;27;51114;-58
2022/09/14 13:55:41;;;;;;;;;1.67;1.67;;;;;;;;5096063;27;50980;-58
2022/09/14 13:58:06;;;;;;;;;3.00;2.00;;;;;;;;5076178;27;51430;-57
2022/09/14 14:00:33;;;;;;;;;2.67;2.67;;;;;;;;5078108;27;52178;-57
2022/09/14 14:02:59;;;;;;;;;0.67;0.67;;;;;;;;5076065;27;51166;-58
2022/09/14 14:05:27;;;;;;;;;1.00;1.00;;;;;;;;5089409;27;50933;-57
2022/09/14 14:07:54;;;;;;;;;1.00;1.00;;;;;;;;5075084;27;51013;-58
2022/09/14 14:10:30;;;;;;;;;1.00;1.00;;;;;;;;5074601;27;51186;-57
2022/09/14 14:12:56;;;;;;;;;1.33;1.33;;;;;;;;5074687;27;50957;-59
2022/09/14 14:15:21;;;;;;;;;0.00;0.00;;;;;;;;5064921;27;51069;-57
2022/09/14 14:17:46;;;;;;;;;2.00;2.00;;;;;;;;5080862;27;51302;-58
2022/09/14 14:20:31;;;;;;;;;0.67;0.33;;;;;;;;5073727;27;53187;-58
2022/09/14 14:22:56;;;;;;;;;1.33;1.33;;;;;;;;5074316;27;50931;-57
2022/09/14 14:25:30;;;;;;;;;4.33;4.33;;;;;;;;5074460;27;51535;-57
2022/09/14 14:28:00;;;;;;;;;2.00;2.00;;;;;;;;5076392;27;51061;-57
2022/09/14 14:30:27;;;;;;;;;1.33;1.33;;;;;;;;5073195;27;53605;-58
2022/09/14 14:32:54;;;;;;;;;0.67;0.67;;;;;;;;5073635;27;51092;-57
2022/09/14 14:35:21;;;;;;;;;1.00;1.00;;;;;;;;5107344;27;51204;-58
2022/09/14 14:37:47;;;;;;;;;0.67;0.67;;;;;;;;5093762;27;51073;-57
2022/09/14 14:40:13;;;;;;;;;0.00;0.00;;;;;;;;5094320;27;52289;-58
2022/09/14 14:42:39;;;;;;;;;1.00;1.00;;;;;;;;5095125;27;51336;-57
2022/09/14 14:45:05;;;;;;;;;1.33;1.33;;;;;;;;5074084;27;50936;-58
2022/09/14 14:47:31;;;;;;;;;1.00;1.00;;;;;;;;5074607;27;51097;-58